sensor_id;sensor_type;location;lat;lon;timestamp;pressure;altitude;pressure_sealevel;temperature;humidity
69402;BME280;56589;51.992;5.924;2023-02-17T00:07:38;101341.09;;;9.47;84.98
69402;BME280;56589;51.992;5.924;2023-02-17T00:10:20;101341.09;;;9.47;85.00
69402;BME280;56589;51.992;5.924;2023-02-17T02:05:09;101275.34;;;9.52;84.76
69402;BME280;56589;51.992;5.924;2023-02-17T02:07:40;101280.50;;;9.53;84.45
69402;BME280;56589;51.992;5.924;2023-02-17T02:26:42;101264.84;;;9.52;84.45
69402;BME280;56589;51.992;5.924;2023-02-17T02:29:45;101260.53;;;9.51;84.44
69402;BME280;56589;51.992;5.924;2023-02-17T02:32:53;101256.19;;;9.49;84.84
69402;BME280;56589;51.992;5.924;2023-02-17T02:35:30;101255.44;;;9.47;84.70
69402;BME280;56589;51.992;5.924;2023-02-17T02:38:06;101249.34;;;9.47;84.79
69402;BME280;56589;51.992;5.924;2023-02-17T02:40:42;101233.47;;;9.50;84.42
69402;BME280;56589;51.992;5.924;2023-02-17T02:43:12;101232.53;;;9.51;84.43
69402;BME280;56589;51.992;5.924;2023-02-17T02:45:40;101215.13;;;9.50;84.52
69402;BME280;56589;51.992;5.924;2023-02-17T02:48:08;101208.13;;;9.51;84.28
69402;BME280;56589;51.992;5.924;2023-02-17T02:50:48;101216.72;;;9.53;84.04
69402;BME280;56589;51.992;5.924;2023-02-17T02:53:40;101215.97;;;9.51;84.10
69402;BME280;56589;51.992;5.924;2023-02-17T02:56:29;101216.97;;;9.48;83.96
69402;BME280;56589;51.992;5.924;2023-02-17T02:59:15;101206.66;;;9.45;83.97
69402;BME280;56589;51.992;5.924;2023-02-17T03:01:59;101217.06;;;9.46;83.97
69402;BME280;56589;51.992;5.924;2023-02-17T03:04:36;101224.91;;;9.46;83.94
69402;BME280;56589;51.992;5.924;2023-02-17T03:07:13;101231.19;;;9.44;83.66
69402;BME280;56589;51.992;5.924;2023-02-17T03:09:44;101220.75;;;9.42;83.82
69402;BME280;56589;51.992;5.924;2023-02-17T03:12:10;101230.34;;;9.43;83.87
69402;BME280;56589;51.992;5.924;2023-02-17T03:14:37;101218.97;;;9.43;83.76
69402;BME280;56589;51.992;5.924;2023-02-17T03:17:03;101223.31;;;9.44;83.68
69402;BME280;56589;51.992;5.924;2023-02-17T03:19:29;101230.25;;;9.45;83.28
69402;BME280;56589;51.992;5.924;2023-02-17T03:22:04;101226.78;;;9.44;83.50
69402;BME280;56589;51.992;5.924;2023-02-17T03:24:36;101220.75;;;9.42;83.70
69402;BME280;56589;51.992;5.924;2023-02-17T03:27:02;101216.34;;;9.43;83.54
69402;BME280;56589;51.992;5.924;2023-02-17T03:29:28;101225.94;;;9.44;83.43
69402;BME280;56589;51.992;5.924;2023-02-17T03:31:54;101224.16;;;9.44;83.51
69402;BME280;56589;51.992;5.924;2023-02-17T03:34:20;101231.94;;;9.46;83.26
69402;BME280;56589;51.992;5.924;2023-02-17T03:36:45;101217.16;;;9.45;83.17
69402;BME280;56589;51.992;5.924;2023-02-17T03:39:14;101217.97;;;9.45;83.42
69402;BME280;56589;51.992;5.924;2023-02-17T03:41:40;101215.38;;;9.45;83.12
69402;BME280;56589;51.992;5.924;2023-02-17T03:44:06;101211.91;;;9.45;83.01
69402;BME280;56589;51.992;5.924;2023-02-17T03:46:31;101204.03;;;9.45;82.95
69402;BME280;56589;51.992;5.924;2023-02-17T03:48:58;101198.78;;;9.45;82.81
69402;BME280;56589;51.992;5.924;2023-02-17T03:51:24;101209.28;;;9.45;82.71
69402;BME280;56589;51.992;5.924;2023-02-17T03:53:51;101201.50;;;9.43;83.19
69402;BME280;56589;51.992;5.924;2023-02-17T03:56:20;101197.03;;;9.45;83.21
69402;BME280;56589;51.992;5.924;2023-02-17T03:58:46;101192.72;;;9.44;82.78
69402;BME280;56589;51.992;5.924;2023-02-17T04:01:13;101185.78;;;9.43;83.00
69402;BME280;56589;51.992;5.924;2023-02-17T04:03:39;101186.63;;;9.44;83.12
69402;BME280;56589;51.992;5.924;2023-02-17T04:06:35;101178.81;;;9.42;82.74
69402;BME280;56589;51.992;5.924;2023-02-17T04:09:15;101177.81;;;9.45;82.79
69402;BME280;56589;51.992;5.924;2023-02-17T04:11:43;101179.59;;;9.44;82.93
69402;BME280;56589;51.992;5.924;2023-02-17T04:14:09;101174.38;;;9.44;82.62
69402;BME280;56589;51.992;5.924;2023-02-17T04:16:35;101186.63;;;9.44;82.92
69402;BME280;56589;51.992;5.924;2023-02-17T04:19:01;101189.25;;;9.44;82.94
69402;BME280;56589;51.992;5.924;2023-02-17T04:21:27;101191.88;;;9.44;83.05
69402;BME280;56589;51.992;5.924;2023-02-17T04:23:55;101185.78;;;9.43;83.02
69402;BME280;56589;51.992;5.924;2023-02-17T04:26:21;101204.97;;;9.44;82.65
69402;BME280;56589;51.992;5.924;2023-02-17T04:28:49;101201.50;;;9.43;82.79
69402;BME280;56589;51.992;5.924;2023-02-17T04:31:15;101183.16;;;9.43;83.06
69402;BME280;56589;51.992;5.924;2023-02-17T04:33:41;101186.63;;;9.44;82.65
69402;BME280;56589;51.992;5.924;2023-02-17T04:36:07;101174.41;;;9.43;82.92
69402;BME280;56589;51.992;5.924;2023-02-17T04:38:33;101181.44;;;9.42;82.64
69402;BME280;56589;51.992;5.924;2023-02-17T04:41:00;101179.66;;;9.43;82.88
69402;BME280;56589;51.992;5.924;2023-02-17T04:43:27;101188.31;;;9.45;82.81
69402;BME280;56589;51.992;5.924;2023-02-17T04:45:56;101171.75;;;9.44;82.84
69402;BME280;56589;51.992;5.924;2023-02-17T04:48:22;101170.91;;;9.44;82.84
69402;BME280;56589;51.992;5.924;2023-02-17T04:50:48;101181.28;;;9.45;83.07
69402;BME280;56589;51.992;5.924;2023-02-17T04:53:14;101179.50;;;9.46;82.99
69402;BME280;56589;51.992;5.924;2023-02-17T04:55:41;101174.28;;;9.46;82.96
69402;BME280;56589;51.992;5.924;2023-02-17T04:58:07;101175.03;;;9.48;82.70
69402;BME280;56589;51.992;5.924;2023-02-17T05:00:33;101164.53;;;9.48;82.58
69402;BME280;56589;51.992;5.924;2023-02-17T05:03:02;101149.66;;;9.48;82.71
69402;BME280;56589;51.992;5.924;2023-02-17T05:05:29;101148.81;;;9.48;82.81
69402;BME280;56589;51.992;5.924;2023-02-17T05:07:55;101148.06;;;9.46;82.53
69402;BME280;56589;51.992;5.924;2023-02-17T05:10:21;101164.72;;;9.45;82.78
69402;BME280;56589;51.992;5.924;2023-02-17T05:12:46;101164.81;;;9.43;82.80
69402;BME280;56589;51.992;5.924;2023-02-17T05:15:12;101170.13;;;9.42;82.83
69402;BME280;56589;51.992;5.924;2023-02-17T05:17:38;101167.59;;;9.40;83.10
69402;BME280;56589;51.992;5.924;2023-02-17T05:20:08;101179.00;;;9.39;83.06
69402;BME280;56589;51.992;5.924;2023-02-17T05:22:34;101180.88;;;9.37;83.23
69402;BME280;56589;51.992;5.924;2023-02-17T05:25:00;101173.06;;;9.36;83.35
69402;BME280;56589;51.992;5.924;2023-02-17T05:27:26;101180.91;;;9.36;83.55
69402;BME280;56589;51.992;5.924;2023-02-17T05:29:52;101182.03;;;9.32;84.06
69402;BME280;56589;51.992;5.924;2023-02-17T05:32:18;101176.84;;;9.30;84.07
69402;BME280;56589;51.992;5.924;2023-02-17T05:34:44;101186.75;;;9.25;84.39
69402;BME280;56589;51.992;5.924;2023-02-17T05:37:12;101179.00;;;9.22;84.60
69402;BME280;56589;51.992;5.924;2023-02-17T05:39:38;101179.94;;;9.21;84.42
69402;BME280;56589;51.992;5.924;2023-02-17T05:42:04;101190.31;;;9.22;84.54
69402;BME280;56589;51.992;5.924;2023-02-17T05:44:30;101183.34;;;9.23;84.62
69402;BME280;56589;51.992;5.924;2023-02-17T05:46:56;101184.19;;;9.23;84.53
69402;BME280;56589;51.992;5.924;2023-02-17T05:49:22;101178.88;;;9.25;84.88
69402;BME280;56589;51.992;5.924;2023-02-17T05:51:48;101159.66;;;9.25;84.76
69402;BME280;56589;51.992;5.924;2023-02-17T05:54:16;101171.88;;;9.26;84.49
69402;BME280;56589;51.992;5.924;2023-02-17T05:56:42;101167.47;;;9.26;84.54
69402;BME280;56589;51.992;5.924;2023-02-17T05:59:08;101164.75;;;9.28;84.53
69402;BME280;56589;51.992;5.924;2023-02-17T06:01:34;101156.91;;;9.28;84.67
69402;BME280;56589;51.992;5.924;2023-02-17T06:04:00;101167.38;;;9.28;84.80
69402;BME280;56589;51.992;5.924;2023-02-17T06:06:28;101158.59;;;9.29;84.59
69402;BME280;56589;51.992;5.924;2023-02-17T06:08:54;101148.09;;;9.29;84.89
69402;BME280;56589;51.992;5.924;2023-02-17T06:11:22;101131.44;;;9.30;84.93
69402;BME280;56589;51.992;5.924;2023-02-17T06:13:48;101156.81;;;9.29;84.64
69402;BME280;56589;51.992;5.924;2023-02-17T06:16:14;101162.06;;;9.29;84.84
69402;BME280;56589;51.992;5.924;2023-02-17T06:18:40;101164.59;;;9.31;85.05
69402;BME280;56589;51.992;5.924;2023-02-17T06:21:05;101153.13;;;9.33;85.00
69402;BME280;56589;51.992;5.924;2023-02-17T06:23:31;101151.44;;;9.32;84.70
69402;BME280;56589;51.992;5.924;2023-02-17T06:25:57;101154.97;;;9.31;85.01
69402;BME280;56589;51.992;5.924;2023-02-17T06:28:26;101152.28;;;9.33;85.08
69402;BME280;56589;51.992;5.924;2023-02-17T06:30:51;101161.81;;;9.34;85.22
69402;BME280;56589;51.992;5.924;2023-02-17T06:33:17;101153.03;;;9.35;84.84
69402;BME280;56589;51.992;5.924;2023-02-17T06:35:47;101162.56;;;9.36;84.76
69402;BME280;56589;51.992;5.924;2023-02-17T06:38:13;101157.28;;;9.37;84.75
69402;BME280;56589;51.992;5.924;2023-02-17T06:40:39;101148.47;;;9.38;84.88
69402;BME280;56589;51.992;5.924;2023-02-17T06:43:05;101144.09;;;9.39;85.10
69402;BME280;56589;51.992;5.924;2023-02-17T06:45:34;101143.16;;;9.40;85.02
69402;BME280;56589;51.992;5.924;2023-02-17T06:48:00;101144.94;;;9.39;85.12
69402;BME280;56589;51.992;5.924;2023-02-17T06:50:26;101143.25;;;9.38;84.97
69402;BME280;56589;51.992;5.924;2023-02-17T06:52:51;101140.44;;;9.41;85.30
69402;BME280;56589;51.992;5.924;2023-02-17T06:55:18;101140.34;;;9.43;84.83
69402;BME280;56589;51.992;5.924;2023-02-17T06:57:44;101148.22;;;9.43;85.04
69402;BME280;56589;51.992;5.924;2023-02-17T07:00:10;101135.19;;;9.41;85.25
69402;BME280;56589;51.992;5.924;2023-02-17T07:02:40;101131.66;;;9.42;85.25
69402;BME280;56589;51.992;5.924;2023-02-17T07:05:06;101128.97;;;9.44;84.93
69402;BME280;56589;51.992;5.924;2023-02-17T07:07:32;101134.97;;;9.46;85.03
69402;BME280;56589;51.992;5.924;2023-02-17T07:09:58;101134.97;;;9.46;85.13
69402;BME280;56589;51.992;5.924;2023-02-17T07:12:26;101125.31;;;9.46;85.06
69402;BME280;56589;51.992;5.924;2023-02-17T07:14:52;101129.72;;;9.46;85.05
69402;BME280;56589;51.992;5.924;2023-02-17T07:17:18;101139.25;;;9.47;85.36
69402;BME280;56589;51.992;5.924;2023-02-17T07:19:46;101126.16;;;9.47;85.11
69402;BME280;56589;51.992;5.924;2023-02-17T07:22:12;101143.56;;;9.48;85.29
69402;BME280;56589;51.992;5.924;2023-02-17T07:24:38;101131.31;;;9.48;85.64
69402;BME280;56589;51.992;5.924;2023-02-17T07:27:05;101127.75;;;9.49;85.28
69402;BME280;56589;51.992;5.924;2023-02-17T07:29:31;101130.31;;;9.51;85.56
69402;BME280;56589;51.992;5.924;2023-02-17T07:31:57;101125.91;;;9.52;85.46
69402;BME280;56589;51.992;5.924;2023-02-17T07:34:23;101128.44;;;9.53;85.41
69402;BME280;56589;51.992;5.924;2023-02-17T07:36:51;101121.34;;;9.55;85.48
69402;BME280;56589;51.992;5.924;2023-02-17T07:39:17;101125.59;;;9.58;85.50
69402;BME280;56589;51.992;5.924;2023-02-17T07:41:43;101126.44;;;9.58;85.29
69402;BME280;56589;51.992;5.924;2023-02-17T07:44:09;101132.34;;;9.62;85.47
69402;BME280;56589;51.992;5.924;2023-02-17T07:46:35;101147.16;;;9.63;85.00
69402;BME280;56589;51.992;5.924;2023-02-17T07:49:01;101139.22;;;9.64;85.19
69402;BME280;56589;51.992;5.924;2023-02-17T07:51:27;101141.66;;;9.67;85.47
69402;BME280;56589;51.992;5.924;2023-02-17T07:53:56;101129.31;;;9.69;85.12
69402;BME280;56589;51.992;5.924;2023-02-17T07:56:22;101139.72;;;9.71;84.90
69402;BME280;56589;51.992;5.924;2023-02-17T07:58:49;101132.59;;;9.73;84.81
69402;BME280;56589;51.992;5.924;2023-02-17T08:01:18;101127.19;;;9.76;85.25
69402;BME280;56589;51.992;5.924;2023-02-17T08:03:45;101113.06;;;9.79;84.93
69402;BME280;56589;51.992;5.924;2023-02-17T08:06:14;101108.75;;;9.77;84.95
69402;BME280;56589;51.992;5.924;2023-02-17T08:08:42;101113.06;;;9.79;85.02
69402;BME280;56589;51.992;5.924;2023-02-17T08:11:13;101119.09;;;9.81;84.95
69402;BME280;56589;51.992;5.924;2023-02-17T08:13:40;101132.84;;;9.84;84.53
69402;BME280;56589;51.992;5.924;2023-02-17T08:16:09;101123.13;;;9.86;84.42
69402;BME280;56589;51.992;5.924;2023-02-17T08:18:35;101132.63;;;9.89;84.41
69402;BME280;56589;51.992;5.924;2023-02-17T08:21:00;101137.75;;;9.90;84.33
69402;BME280;56589;51.992;5.924;2023-02-17T08:23:26;101137.84;;;9.89;84.69
69402;BME280;56589;51.992;5.924;2023-02-17T08:25:55;101132.44;;;9.92;84.51
69402;BME280;56589;51.992;5.924;2023-02-17T08:28:24;101129.66;;;9.95;84.53
69402;BME280;56589;51.992;5.924;2023-02-17T08:30:50;101135.56;;;9.98;84.15
69402;BME280;56589;51.992;5.924;2023-02-17T08:33:16;101142.41;;;10.01;84.49
69402;BME280;56589;51.992;5.924;2023-02-17T08:35:41;101146.63;;;10.03;84.20
69402;BME280;56589;51.992;5.924;2023-02-17T08:38:08;101142.16;;;10.06;84.38
69402;BME280;56589;51.992;5.924;2023-02-17T08:40:35;101156.97;;;10.07;83.97
69402;BME280;56589;51.992;5.924;2023-02-17T08:43:01;101165.59;;;10.09;84.14
69402;BME280;56589;51.992;5.924;2023-02-17T08:45:29;101171.59;;;10.11;83.91
69402;BME280;56589;51.992;5.924;2023-02-17T08:47:55;101169.66;;;10.14;84.02
69402;BME280;56589;51.992;5.924;2023-02-17T08:50:21;101172.28;;;10.14;83.92
69402;BME280;56589;51.992;5.924;2023-02-17T08:52:47;101180.91;;;10.16;84.14
69402;BME280;56589;51.992;5.924;2023-02-17T08:55:13;101187.88;;;10.17;83.92
69402;BME280;56589;51.992;5.924;2023-02-17T08:57:38;101191.34;;;10.18;83.81
69402;BME280;56589;51.992;5.924;2023-02-17T09:00:06;101181.50;;;10.21;83.44
69402;BME280;56589;51.992;5.924;2023-02-17T09:02:36;101184.91;;;10.23;83.38
69402;BME280;56589;51.992;5.924;2023-02-17T09:05:02;101191.00;;;10.24;83.60
69402;BME280;56589;51.992;5.924;2023-02-17T09:07:29;101161.09;;;10.26;83.35
69402;BME280;56589;51.992;5.924;2023-02-17T09:09:55;101174.06;;;10.29;83.63
69402;BME280;56589;51.992;5.924;2023-02-17T09:12:21;101189.72;;;10.31;83.15
69402;BME280;56589;51.992;5.924;2023-02-17T09:14:47;101205.38;;;10.33;83.00
69402;BME280;56589;51.992;5.924;2023-02-17T09:17:12;101196.47;;;10.35;82.86
69402;BME280;56589;51.992;5.924;2023-02-17T09:19:41;101205.03;;;10.39;83.05
69402;BME280;56589;51.992;5.924;2023-02-17T09:22:07;101208.59;;;10.38;83.17
69402;BME280;56589;51.992;5.924;2023-02-17T09:24:33;101207.50;;;10.42;83.10
69402;BME280;56589;51.992;5.924;2023-02-17T09:27:00;101202.22;;;10.42;82.64
69402;BME280;56589;51.992;5.924;2023-02-17T09:29:26;101198.72;;;10.41;82.89
69402;BME280;56589;51.992;5.924;2023-02-17T09:31:52;101205.72;;;10.42;82.73
69402;BME280;56589;51.992;5.924;2023-02-17T09:34:18;101212.53;;;10.45;83.02
69402;BME280;56589;51.992;5.924;2023-02-17T09:36:46;101188.81;;;10.46;82.51
69402;BME280;56589;51.992;5.924;2023-02-17T09:39:12;101189.66;;;10.47;82.53
69402;BME280;56589;51.992;5.924;2023-02-17T09:41:41;101201.88;;;10.48;82.67
69402;BME280;56589;51.992;5.924;2023-02-17T09:44:16;101184.25;;;10.50;82.83
69402;BME280;56589;51.992;5.924;2023-02-17T09:46:50;101187.72;;;10.50;82.66
69402;BME280;56589;51.992;5.924;2023-02-17T09:49:24;101183.41;;;10.49;82.66
69402;BME280;56589;51.992;5.924;2023-02-17T09:52:00;101178.06;;;10.51;82.46
69402;BME280;56589;51.992;5.924;2023-02-17T09:54:34;101191.94;;;10.53;82.11
69402;BME280;56589;51.992;5.924;2023-02-17T09:57:07;101177.03;;;10.53;82.07
69402;BME280;56589;51.992;5.924;2023-02-17T09:59:44;101177.72;;;10.57;82.34
69402;BME280;56589;51.992;5.924;2023-02-17T10:02:18;101177.63;;;10.58;82.08
69402;BME280;56589;51.992;5.924;2023-02-17T10:04:53;101176.63;;;10.61;81.84
69402;BME280;56589;51.992;5.924;2023-02-17T10:07:29;101186.34;;;10.59;81.67
69402;BME280;56589;51.992;5.924;2023-02-17T10:10:04;101165.34;;;10.59;81.57
69402;BME280;56589;51.992;5.924;2023-02-17T10:12:36;101160.00;;;10.61;81.81
69402;BME280;56589;51.992;5.924;2023-02-17T10:15:08;101166.84;;;10.63;81.55
69402;BME280;56589;51.992;5.924;2023-02-17T10:17:39;101171.94;;;10.66;81.39
69402;BME280;56589;51.992;5.924;2023-02-17T10:20:12;101175.13;;;10.71;81.51
69402;BME280;56589;51.992;5.924;2023-02-17T10:22:48;101179.28;;;10.75;81.47
69402;BME280;56589;51.992;5.924;2023-02-17T10:25:24;101181.81;;;10.77;80.82
69402;BME280;56589;51.992;5.924;2023-02-17T10:28:15;101191.56;;;10.75;80.71
69402;BME280;56589;51.992;5.924;2023-02-17T10:30:52;101199.69;;;10.70;80.85
69402;BME280;56589;51.992;5.924;2023-02-17T10:33:29;101207.47;;;10.72;81.20
69402;BME280;56589;51.992;5.924;2023-02-17T10:36:10;101196.91;;;10.73;81.00
69402;BME280;56589;51.992;5.924;2023-02-17T10:38:48;101198.59;;;10.74;81.09
69402;BME280;56589;51.992;5.924;2023-02-17T10:41:20;101222.22;;;10.74;80.73
69402;BME280;56589;51.992;5.924;2023-02-17T10:43:52;101220.56;;;10.73;80.84
69402;BME280;56589;51.992;5.924;2023-02-17T10:46:25;101218.78;;;10.74;80.94
69402;BME280;56589;51.992;5.924;2023-02-17T10:48:54;101214.34;;;10.74;80.98
69402;BME280;56589;51.992;5.924;2023-02-17T10:51:26;101220.34;;;10.76;80.61
69402;BME280;56589;51.992;5.924;2023-02-17T10:53:59;101216.97;;;10.74;80.70
69402;BME280;56589;51.992;5.924;2023-02-17T10:56:34;101202.22;;;10.72;80.79
69402;BME280;56589;51.992;5.924;2023-02-17T10:59:06;101202.16;;;10.73;80.67
69402;BME280;56589;51.992;5.924;2023-02-17T11:01:41;101204.69;;;10.75;80.68
69402;BME280;56589;51.992;5.924;2023-02-17T11:04:09;101212.56;;;10.75;80.39
69402;BME280;56589;51.992;5.924;2023-02-17T11:06:40;101202.06;;;10.75;80.22
69402;BME280;56589;51.992;5.924;2023-02-17T11:09:18;101201.03;;;10.77;80.32
69402;BME280;56589;51.992;5.924;2023-02-17T11:11:57;101201.97;;;10.76;80.46
69402;BME280;56589;51.992;5.924;2023-02-17T11:14:26;101205.53;;;10.75;80.15
69402;BME280;56589;51.992;5.924;2023-02-17T11:16:56;101203.75;;;10.76;80.43
69402;BME280;56589;51.992;5.924;2023-02-17T11:19:27;101217.72;;;10.76;80.09
69402;BME280;56589;51.992;5.924;2023-02-17T11:21:57;101207.97;;;10.78;80.43
69402;BME280;56589;51.992;5.924;2023-02-17T11:24:26;101215.78;;;10.80;80.17
69402;BME280;56589;51.992;5.924;2023-02-17T11:26:56;101206.13;;;10.80;80.20
69402;BME280;56589;51.992;5.924;2023-02-17T11:29:24;101207.66;;;10.84;80.17
69402;BME280;56589;51.992;5.924;2023-02-17T11:31:56;101211.78;;;10.89;80.31
69402;BME280;56589;51.992;5.924;2023-02-17T11:34:25;101217.06;;;10.89;79.75
69402;BME280;56589;51.992;5.924;2023-02-17T11:36:58;101210.09;;;10.88;80.36
69402;BME280;56589;51.992;5.924;2023-02-17T11:39:28;101207.59;;;10.86;79.71
69402;BME280;56589;51.992;5.924;2023-02-17T11:41:54;101221.66;;;10.85;80.20
69402;BME280;56589;51.992;5.924;2023-02-17T11:44:25;101229.59;;;10.83;80.02
69402;BME280;56589;51.992;5.924;2023-02-17T11:47:00;101228.84;;;10.81;79.83
69402;BME280;56589;51.992;5.924;2023-02-17T11:49:53;101234.16;;;10.80;80.06
69402;BME280;56589;51.992;5.924;2023-02-17T11:52:45;101234.44;;;10.75;79.96
69402;BME280;56589;51.992;5.924;2023-02-17T11:55:30;101231.06;;;10.73;80.22
69402;BME280;56589;51.992;5.924;2023-02-17T11:58:22;101223.19;;;10.73;80.41
69402;BME280;56589;51.992;5.924;2023-02-17T12:01:01;101225.88;;;10.72;80.42
69402;BME280;56589;51.992;5.924;2023-02-17T12:03:46;101223.34;;;10.70;80.16
69402;BME280;56589;51.992;5.924;2023-02-17T12:06:37;101218.09;;;10.70;80.77
69402;BME280;56589;51.992;5.924;2023-02-17T12:09:17;101219.59;;;10.74;80.65
69402;BME280;56589;51.992;5.924;2023-02-17T12:11:59;101231.81;;;10.75;80.61
69402;BME280;56589;51.992;5.924;2023-02-17T12:14:47;101226.44;;;10.77;80.33
69402;BME280;56589;51.992;5.924;2023-02-17T12:17:34;101228.97;;;10.78;80.69
69402;BME280;56589;51.992;5.924;2023-02-17T12:20:29;101235.00;;;10.80;80.47
69402;BME280;56589;51.992;5.924;2023-02-17T12:23:12;101228.91;;;10.80;80.20
69402;BME280;56589;51.992;5.924;2023-02-17T12:25:56;101236.72;;;10.81;80.34
69402;BME280;56589;51.992;5.924;2023-02-17T12:28:51;101238.31;;;10.84;80.23
69402;BME280;56589;51.992;5.924;2023-02-17T12:31:47;101219.88;;;10.86;80.48
69402;BME280;56589;51.992;5.924;2023-02-17T12:34:35;101230.44;;;10.84;80.33
69402;BME280;56589;51.992;5.924;2023-02-17T12:37:08;101257.75;;;10.81;80.37
69402;BME280;56589;51.992;5.924;2023-02-17T12:39:44;101240.28;;;10.80;79.96
69402;BME280;56589;51.992;5.924;2023-02-17T12:42:17;101244.84;;;10.77;79.85
69402;BME280;56589;51.992;5.924;2023-02-17T12:44:52;101244.19;;;10.73;79.85
69402;BME280;56589;51.992;5.924;2023-02-17T12:47:24;101267.97;;;10.70;80.35
69402;BME280;56589;51.992;5.924;2023-02-17T12:50:00;101270.59;;;10.70;80.37
69402;BME280;56589;51.992;5.924;2023-02-17T12:52:35;101286.38;;;10.70;80.35
69402;BME280;56589;51.992;5.924;2023-02-17T12:55:11;101288.06;;;10.71;79.88
69402;BME280;56589;51.992;5.924;2023-02-17T12:57:44;101296.88;;;10.70;80.23
69402;BME280;56589;51.992;5.924;2023-02-17T13:00:20;101304.75;;;10.70;80.08
69402;BME280;56589;51.992;5.924;2023-02-17T13:02:48;101305.78;;;10.68;80.32
69402;BME280;56589;51.992;5.924;2023-02-17T13:05:22;101305.88;;;10.66;80.22
69402;BME280;56589;51.992;5.924;2023-02-17T13:07:56;101291.97;;;10.64;80.02
69402;BME280;56589;51.992;5.924;2023-02-17T13:10:33;101301.03;;;10.58;80.43
69402;BME280;56589;51.992;5.924;2023-02-17T13:13:04;101308.25;;;10.55;80.72
69402;BME280;56589;51.992;5.924;2023-02-17T13:15:39;101301.38;;;10.52;81.02
69402;BME280;56589;51.992;5.924;2023-02-17T13:18:11;101322.81;;;10.45;81.13
69402;BME280;56589;51.992;5.924;2023-02-17T13:20:51;101302.31;;;10.36;81.75
69402;BME280;56589;51.992;5.924;2023-02-17T13:23:29;101306.19;;;10.28;82.75
69402;BME280;56589;51.992;5.924;2023-02-17T13:29:18;101310.00;;;10.07;82.95
69402;BME280;56589;51.992;5.924;2023-02-17T13:32:02;101297.94;;;10.03;82.92
69402;BME280;56589;51.992;5.924;2023-02-17T13:34:32;101317.09;;;10.05;83.36
69402;BME280;56589;51.992;5.924;2023-02-17T13:37:13;101312.75;;;10.04;83.29
69402;BME280;56589;51.992;5.924;2023-02-17T13:39:41;101306.59;;;10.05;83.57
69402;BME280;56589;51.992;5.924;2023-02-17T13:45:16;101291.63;;;10.07;83.42
69402;BME280;56589;51.992;5.924;2023-02-17T13:47:52;101299.59;;;10.06;83.35
69402;BME280;56589;51.992;5.924;2023-02-17T13:50:29;101309.16;;;10.07;83.11
69402;BME280;56589;51.992;5.924;2023-02-17T13:52:58;101317.69;;;10.10;83.54
69402;BME280;56589;51.992;5.924;2023-02-17T13:55:24;101304.41;;;10.13;83.21
69402;BME280;56589;51.992;5.924;2023-02-17T13:57:51;101306.00;;;10.16;82.79
69402;BME280;56589;51.992;5.924;2023-02-17T14:00:20;101315.34;;;10.21;82.75
69402;BME280;56589;51.992;5.924;2023-02-17T14:02:54;101293.34;;;10.24;82.70
69402;BME280;56589;51.992;5.924;2023-02-17T14:05:26;101296.88;;;10.23;82.54
69402;BME280;56589;51.992;5.924;2023-02-17T14:08:03;101294.94;;;10.26;82.34
69402;BME280;56589;51.992;5.924;2023-02-17T14:10:32;101303.75;;;10.25;82.47
69402;BME280;56589;51.992;5.924;2023-02-17T14:12:59;101298.41;;;10.27;82.43
69402;BME280;56589;51.992;5.924;2023-02-17T14:15:26;101290.53;;;10.27;82.58
69402;BME280;56589;51.992;5.924;2023-02-17T14:17:55;101302.66;;;10.29;82.12
69402;BME280;56589;51.992;5.924;2023-02-17T14:20:26;101287.56;;;10.33;81.97
69402;BME280;56589;51.992;5.924;2023-02-17T14:22:59;101283.06;;;10.35;82.03
69402;BME280;56589;51.992;5.924;2023-02-17T14:25:30;101295.19;;;10.38;82.01
69402;BME280;56589;51.992;5.924;2023-02-17T14:27:58;101286.41;;;10.39;81.93
69402;BME280;56589;51.992;5.924;2023-02-17T14:30:30;101296.88;;;10.39;81.96
69402;BME280;56589;51.992;5.924;2023-02-17T14:33:05;101289.75;;;10.41;81.80
69402;BME280;56589;51.992;5.924;2023-02-17T14:35:33;101294.97;;;10.42;81.65
69402;BME280;56589;51.992;5.924;2023-02-17T14:38:07;101295.63;;;10.46;81.62
69402;BME280;56589;51.992;5.924;2023-02-17T14:40:44;101294.78;;;10.45;81.70
69402;BME280;56589;51.992;5.924;2023-02-17T14:43:09;101293.84;;;10.46;81.54
69402;BME280;56589;51.992;5.924;2023-02-17T14:45:35;101306.91;;;10.48;81.12
69402;BME280;56589;51.992;5.924;2023-02-17T14:48:04;101302.41;;;10.50;81.19
69402;BME280;56589;51.992;5.924;2023-02-17T14:50:30;101298.94;;;10.49;81.05
69402;BME280;56589;51.992;5.924;2023-02-17T14:52:56;101300.53;;;10.52;81.16
69402;BME280;56589;51.992;5.924;2023-02-17T14:55:28;101301.38;;;10.52;80.93
69402;BME280;56589;51.992;5.924;2023-02-17T14:58:03;101309.19;;;10.54;81.30
69402;BME280;56589;51.992;5.924;2023-02-17T15:00:41;101302.91;;;10.56;80.93
69402;BME280;56589;51.992;5.924;2023-02-17T15:03:09;101314.16;;;10.58;80.77
69402;BME280;56589;51.992;5.924;2023-02-17T15:05:35;101314.94;;;10.61;81.19
69402;BME280;56589;51.992;5.924;2023-02-17T15:08:01;101319.16;;;10.63;80.82
69402;BME280;56589;51.992;5.924;2023-02-17T15:10:27;101328.56;;;10.67;80.62
69402;BME280;56589;51.992;5.924;2023-02-17T15:12:54;101344.34;;;10.67;80.61
69402;BME280;56589;51.992;5.924;2023-02-17T15:15:21;101360.84;;;10.69;80.52
69402;BME280;56589;51.992;5.924;2023-02-17T15:17:47;101350.44;;;10.68;80.56
69402;BME280;56589;51.992;5.924;2023-02-17T15:20:18;101358.22;;;10.69;80.45
69402;BME280;56589;51.992;5.924;2023-02-17T15:22:43;101346.69;;;10.72;80.66
69402;BME280;56589;51.992;5.924;2023-02-17T15:25:15;101350.84;;;10.76;80.47
69402;BME280;56589;51.992;5.924;2023-02-17T15:27:42;101342.03;;;10.77;80.55
69402;BME280;56589;51.992;5.924;2023-02-17T15:30:10;101341.09;;;10.78;80.36
69402;BME280;56589;51.992;5.924;2023-02-17T15:32:38;101350.84;;;10.76;80.25
69402;BME280;56589;51.992;5.924;2023-02-17T15:35:17;101360.50;;;10.75;80.19